Terminal Aerodrome Forecast
Issued by NWS Wilmington, OH

Current Version | Previous Version | Text Only | Print | Product List | Glossary Off
Versions: 1 2 3 4 5 6 7 8 9 10 11 12 13 14 15 16 17 18 19 20 21 22 23 24 25 26 27 28 29 30 31 32 33

000
FTUS41 KILN 250200 AAA
TAFCVG
TAF AMD
KCVG 250251Z 2503/2606 16010KT P6SM SCT100 BKN200
     FM250800 18012KT P6SM VCSH BKN080
     FM251200 21014G23KT P6SM SCT050 BKN080
     FM251700 22016G25KT P6SM VCSH BKN050=

USA.gov is the U.S. government's official web portal to all federal, state and local government web resources and services.